LiveATC.Net - Listen to live air traffic control over the Internet!


ICAO: EFKU  IATA: KUO   Airport: Kuopio Airport
City: Siilinjarvi
Country: Finland   Continent: Europe
EFKU METAR Weather: EFKU 070320Z AUTO 24012KT 9999 BKN013 09/07 Q1000
EFKU ADS-B Flight Tracking (ADSBExchange)
EFKU Flight Activity (FlightAware)

EFKU Tower/Approach
Feed Status: DOWN
Last heard on: 2022-10-06 22:17:38 (0 days 5 hours 25 minutes ago)
Archive Access: EFKU Tower/Approach
FacilityFrequency
Kuopio Approach130.600
Kuopio Tower120.150

NOTICE

Unauthorized use prohibited. See LiveATC.net Terms of Service


Airport/ARTCC Code
Frequency Search
(e.g., 124.400, 128.75)
Site-wide search
 


Browse Feeds
Top 50 Feeds
HF Oceanic Feeds
Coverage Map
Bad Weather Areas

LiveATC FAQ
Offer LiveATC feed
Contact LiveATC.net
Press Inquiries

LiveATC on iPhone
LiveATC on Android

LiveATC Mobile
(Mobile browser)

ATC Audio Archives
Interesting Recordings

LiveATC Forums


Home Page
About LiveATC.net


Terms of Use
Privacy Policy

AIRMETs/SIGMETs

FAA Airport Status
NAS Status
Arrival Demand


Server Software By:
Icecast.org
Liquidsoap